Station: Cunderdin Airport  

  Atmospheric Gas Attenuation - ITU Rec 676-11   ----------------- dB/100km -----------------
Date Time Temp RH % AH g/m3 Dew Point Wind Direction Speed kph Gust kph Barometer mB Rainfall Since 9am 24GHz 47GHz 76GHz 122GHz 134GHz 241GHz
08/05 09:30 16.9 63 9.06 9.8 33 46 1031.6 0 20.4 26.4 40.9 107.1 102.0 351.2
08/05 09:20 16.7 66 9.38 10.3 28 33 1031.8 0 21.1 27.0 42.3 110.8 106.4 366.8
08/05 09:10 16 67 9.13 9.9 32 43 1031.8 0 20.6 26.8 41.6 109.1 104.1 358.5
08/05 09:00 15.6 70 9.31 10.2 20 24 1032 0 21.0 27.2 42.6 111.6 107.0 368.8
08/05 08:50 14.9 73 9.3 10.1 17 22 1032 0 21.0 27.4 42.9 112.5 107.9 371.6
08/05 08:40 14.4 75 9.27 10 17 20 1032 0 21.0 27.5 43.1 112.9 108.2 372.5
08/05 08:30 13.8 76 9.06 9.6 20 26 1032 0 20.5 27.4 42.5 111.5 106.1 365.4
08/05 08:20 13.4 77 8.95 9.5 17 24 1032 0 20.3 27.3 42.3 110.8 105.2 362.0
08/05 08:10 12.7 79 8.79 9.2 17 19 1031.9 0 20.0 27.2 42.0 110.0 103.9 357.5
08/05 08:00 12 81 8.63 8.8 15 20 1031.9 0 19.7 27.2 41.7 109.2 102.7 353.0
08/05 07:50 11.5 84 8.68 8.9 11 15 1031.7 0 19.9 27.4 42.2 110.4 104.0 357.7
08/05 07:40 10.6 91 8.88 9.2 7 9 1031.7 0 20.3 28.0 43.5 114.0 108.1 371.7
08/05 07:30 8.8 93 8.1 7.7 2 7 1031.6 0 18.7 27.3 41.1 107.6 99.5 341.4
08/05 07:20 7.8 92 7.51 6.6 0 0 1031.5 0 17.5 26.6 39.1 102.3 92.5 316.7
08/05 07:10 7 91 7.05 5.6 0 0 1031.4 0 16.6 26.0 37.6 98.1 87.0 297.4
08/05 07:00 6.7 91 6.92 5.3 0 6 1031.3 0 16.3 25.9 37.2 97.0 85.5 292.2
08/05 06:50 7 86 6.67 4.8 4 6 1031.3 0 15.7 25.4 36.0 93.9 81.8 279.1
08/05 06:40 8.2 89 7.46 6.5 9 9 1031.2 0 17.4 26.3 38.7 101.2 91.3 312.6
08/05 06:30 8.5 89 7.6 6.8 9 11 1031.2 0 17.7 26.5 39.1 102.3 92.9 318.2
08/05 06:20 8.7 88 7.61 6.8 9 9 1031.2 0 17.7 26.4 39.1 102.2 92.8 317.8
08/05 06:10 8.7 87 7.53 6.7 7 9 1031.1 0 17.5 26.3 38.7 101.3 91.6 313.9
08/05 06:00 8.9 87 7.62 6.9 9 13 1031 0 17.7 26.4 39.0 102.0 92.6 317.4
08/05 05:50 9.1 86 7.63 6.9 9 11 1030.9 0 17.7 26.3 39.0 101.9 92.5 317.1
08/05 05:40 9.4 85 7.69 7 9 11 1030.9 0 17.8 26.4 39.1 102.1 93.0 318.8
08/05 05:30 9.5 84 7.65 6.9 11 17 1030.8 0 17.7 26.3 38.8 101.6 92.3 316.4
08/05 05:20 9.7 84 7.75 7.1 13 15 1030.7 0 17.9 26.4 39.1 102.4 93.4 320.4
08/05 05:10 9.8 83 7.7 7.1 17 19 1030.6 0 17.8 26.2 38.9 101.7 92.6 317.5
08/05 05:00 9.8 83 7.7 7.1 17 24 1030.5 0 17.8 26.2 38.9 101.7 92.6 317.5
08/05 04:50 9.8 83 7.7 7.1 15 17 1030.5 0 17.8 26.2 38.9 101.7 92.6 317.5
08/05 04:40 9.9 82 7.66 7 15 19 1030.5 0 17.7 26.1 38.7 101.1 92.0 315.2
08/05 04:30 10.1 81 7.66 7 15 19 1030.4 0 17.7 26.1 38.6 100.9 91.7 314.4
08/05 04:20 10.2 80 7.61 6.9 15 17 1030.5 0 17.6 26.0 38.3 100.2 90.9 311.6
08/05 04:10 10.4 79 7.62 6.9 15 15 1030.4 0 17.6 25.9 38.3 100.0 90.8 311.3
08/05 04:00 10.5 78 7.57 6.8 17 24 1030.4 0 17.5 25.8 38.0 99.4 90.0 308.5
08/05 03:50 10.6 78 7.61 6.9 17 19 1030.3 0 17.6 25.9 38.1 99.7 90.4 310.0
08/05 03:40 10.7 77 7.56 6.8 19 20 1030.2 0 17.5 25.7 37.9 99.0 89.6 307.2
08/05 03:30 10.7 77 7.56 6.8 17 22 1030.2 0 17.5 25.7 37.9 99.0 89.6 307.2
08/05 03:20 10.7 76 7.47 6.6 17 20 1030.3 0 17.3 25.6 37.5 98.0 88.4 303.0
08/05 03:10 10.7 76 7.47 6.6 19 20 1030.3 0 17.3 25.6 37.5 98.0 88.4 303.0
08/05 03:00 10.9 75 7.46 6.6 15 19 1030.4 0 17.3 25.5 37.4 97.7 88.1 301.8
08/05 02:50 10.9 75 7.46 6.6 15 17 1030.4 0 17.3 25.5 37.4 97.7 88.1 301.8
08/05 02:40 11.2 73 7.4 6.5 13 15 1030.5 0 17.1 25.3 37.0 96.7 87.0 297.9
08/05 02:30 11.3 73 7.45 6.6 15 19 1030.5 0 17.2 25.4 37.1 97.1 87.5 299.8
08/05 02:20 11.4 73 7.49 6.7 13 17 1030.5 0 17.3 25.4 37.3 97.4 87.9 301.3
08/05 02:10 11.5 72 7.44 6.6 13 15 1030.5 0 17.2 25.3 37.0 96.7 87.2 298.6
08/05 02:00 11.6 72 7.48 6.7 15 20 1030.4 0 17.3 25.4 37.1 97.0 87.6 300.1
08/05 01:50 11.6 72 7.48 6.7 13 17 1030.4 0 17.3 25.4 37.1 97.0 87.6 300.1
08/05 01:40 11.7 72 7.53 6.8 15 19 1030.4 0 17.4 25.4 37.3 97.4 88.1 302.0
08/05 01:30 11.6 72 7.48 6.7 11 17 1030.4 0 17.3 25.4 37.1 97.0 87.6 300.1
08/05 01:20 11.7 72 7.53 6.8 9 13 1030.4 0 17.4 25.4 37.3 97.4 88.1 302.0
08/05 01:10 11.9 71 7.52 6.8 11 13 1030.4 0 17.4 25.3 37.1 97.1 87.8 300.8
08/05 01:00 11.9 71 7.52 6.8 11 15 1030.5 0 17.4 25.3 37.1 97.1 87.8 300.8
08/05 00:50 12.1 70 7.51 6.8 13 15 1030.5 0 17.3 25.3 37.0 96.7 87.4 299.6
08/05 00:40 12.3 69 7.49 6.8 13 15 1030.4 0 17.3 25.2 36.8 96.3 86.9 297.9
08/05 00:30 12.4 68 7.43 6.7 13 17 1030.5 0 17.1 25.1 36.6 95.5 86.0 294.8
08/05 00:20 12.7 68 7.57 7 11 13 1030.5 0 17.4 25.2 37.0 96.6 87.5 300.1
08/05 00:10 12.9 67 7.55 6.9 13 15 1030.5 0 17.4 25.1 36.8 96.2 87.0 298.4
08/05 00:00 13.1 66 7.53 6.9 17 22 1030.4 0 17.3 25.0 36.6 95.7 86.6 296.7
07/05 23:50 13.4 65 7.56 7 19 20 1030.3 0 17.4 25.0 36.6 95.7 86.6 296.9
07/05 23:40 13.4 64 7.44 6.7 19 20 1030.2 0 17.1 24.8 36.1 94.4 85.1 291.5
07/05 23:30 13.6 64 7.53 6.9 20 26 1030.2 0 17.3 24.9 36.4 95.1 86.0 294.8
07/05 23:20 13.7 64 7.58 7 22 26 1030.2 0 17.4 24.9 36.5 95.5 86.5 296.7
07/05 23:10 13.8 63 7.51 6.9 20 22 1030.2 0 17.3 24.8 36.2 94.7 85.5 293.2
07/05 23:00 14 62 7.48 6.8 20 26 1030.3 0 17.2 24.7 36.0 94.1 84.9 291.1
07/05 22:50 14.3 61 7.49 6.9 22 26 1030.2 0 17.2 24.6 35.9 93.9 84.7 290.4
07/05 22:40 14.4 60 7.42 6.7 20 26 1030.2 0 17.0 24.5 35.6 93.0 83.7 287.0
07/05 22:30 14.6 60 7.51 6.9 20 28 1030.2 0 17.2 24.6 35.9 93.7 84.7 290.2
07/05 22:20 14.2 61 7.45 6.8 19 22 1030.2 0 17.1 24.6 35.8 93.6 84.3 289.0
07/05 22:10 14.1 61 7.4 6.7 19 22 1030.1 0 17.0 24.5 35.7 93.2 83.8 287.1
07/05 22:00 14.2 61 7.45 6.8 17 24 1030 0 17.1 24.6 35.8 93.5 84.3 289.0
07/05 21:50 14.3 60 7.37 6.6 19 22 1030 0 16.9 24.4 35.5 92.6 83.2 285.0
07/05 21:40 14.5 59 7.34 6.6 17 20 1029.9 0 16.9 24.3 35.2 92.1 82.6 283.0
07/05 21:30 14.3 60 7.37 6.6 13 20 1029.8 0 16.9 24.4 35.4 92.6 83.2 285.0
07/05 21:20 14.1 60 7.28 6.5 11 15 1029.8 0 16.8 24.3 35.2 91.9 82.2 281.7
07/05 21:10 14.1 60 7.28 6.5 13 15 1029.6 0 16.8 24.3 35.2 91.9 82.2 281.7
07/05 21:00 14.2 59 7.2 6.3 15 19 1029.5 0 16.6 24.2 34.8 90.9 81.1 277.7
07/05 20:50 14.3 58 7.13 6.2 13 17 1029.4 0 16.4 24.0 34.5 90.1 80.1 274.3
07/05 20:40 14.4 58 7.17 6.3 15 17 1029.4 0 16.5 24.1 34.6 90.4 80.5 275.7
07/05 20:30 14.7 56 7.05 6 17 24 1029.3 0 16.2 23.8 34.0 88.8 78.7 269.4
07/05 20:20 14.7 55 6.92 5.8 15 19 1029.3 0 16.0 23.6 33.5 87.5 77.1 263.7
07/05 20:10 14.9 54 6.88 5.7 15 17 1029.3 0 15.9 23.5 33.3 86.9 76.4 261.3
07/05 20:00 15 53 6.8 5.5 15 20 1029.3 0 15.7 23.3 33.0 86.0 75.3 257.6
07/05 19:50 15.1 53 6.84 5.6 15 17 1029.3 0 15.8 23.4 33.1 86.3 75.7 259.0
07/05 19:40 15 53 6.8 5.5 15 19 1029.3 0 15.7 23.3 33.0 86.0 75.3 257.6
07/05 19:30 15.2 52 6.75 5.4 13 17 1029.3 0 15.6 23.2 32.7 85.3 74.5 254.8
07/05 19:20 15.4 51 6.7 5.3 13 15 1029.2 0 15.5 23.1 32.4 84.6 73.7 252.0
07/05 19:10 15.9 49 6.64 5.2 13 17 1029.1 0 15.3 22.9 32.0 83.5 72.5 247.9
07/05 19:00 16.4 48 6.7 5.4 13 20 1029.2 0 15.4 22.8 32.0 83.5 72.8 248.9
07/05 18:50 16.6 47 6.64 5.3 13 15 1029.2 0 15.3 22.7 31.7 82.7 71.9 245.8
07/05 18:40 17 46 6.66 5.3 17 19 1029.1 0 15.3 22.6 31.7 82.5 71.8 245.4
07/05 18:30 17.2 46 6.74 5.5 15 20 1029 0 15.5 22.7 31.9 83.1 72.5 248.1
07/05 18:20 17.6 45 6.75 5.5 15 19 1028.9 0 15.5 22.6 31.7 82.8 72.3 247.3
07/05 18:10 17.9 44 6.72 5.5 15 19 1028.8 0 15.4 22.5 31.5 82.2 71.7 245.1
07/05 18:00 18.2 44 6.84 5.8 17 20 1028.7 0 15.7 22.6 31.8 83.0 72.8 249.1
07/05 17:50 18.4 43 6.76 5.6 17 17 1028.6 0 15.5 22.4 31.5 82.0 71.7 245.2
07/05 17:40 18.6 43 6.84 5.8 17 20 1028.6 0 15.6 22.5 31.7 82.6 72.4 247.9
07/05 17:30 19 42 6.84 5.8 17 28 1028.5 0 15.6 22.4 31.5 82.2 72.1 246.6
07/05 17:20 19.3 40 6.63 5.4 17 19 1028.4 0 15.2 22.0 30.7 79.9 69.4 237.2
07/05 17:10 19.6 40 6.75 5.6 22 30 1028.3 0 15.4 22.1 31.0 80.7 70.5 241.1
07/05 17:00 20 39 6.74 5.6 22 30 1028.3 0 15.4 22.0 30.8 80.2 70.0 239.6

Last Refresh: 08-May-2026 11:05:11

Bureau of Meteorology